createdAt,value
2023-05-04T00:00:13.493Z,95.10
2023-05-04T00:01:13.498Z,92.80
2023-05-04T00:02:13.554Z,94.87
2023-05-04T00:03:13.692Z,93.03
2023-05-04T00:04:13.683Z,96.29
2023-05-04T00:05:13.590Z,87.46
2023-05-04T00:06:13.591Z,90.21
2023-05-04T00:07:13.584Z,94.21
2023-05-04T00:08:13.656Z,89.84
2023-05-04T00:09:13.661Z,90.67
2023-05-04T00:10:13.679Z,89.03
2023-05-04T00:11:13.704Z,89.94
2023-05-04T00:12:13.744Z,87.20
2023-05-04T00:13:13.802Z,91.55
2023-05-04T00:14:13.798Z,87.49
2023-05-04T00:15:13.835Z,86.57
2023-05-04T00:16:13.904Z,88.48
2023-05-04T00:17:13.920Z,88.49
2023-05-04T00:18:13.935Z,88.93
2023-05-04T00:19:13.924Z,81.00
2023-05-04T00:20:13.985Z,84.40
2023-05-04T00:21:14.002Z,90.21
2023-05-04T00:22:14.107Z,86.81
2023-05-04T00:23:14.060Z,83.64
2023-05-04T00:24:14.105Z,84.62
2023-05-04T00:25:14.110Z,81.96
2023-05-04T00:26:14.149Z,80.88
2023-05-04T00:27:14.206Z,86.47
2023-05-04T00:28:14.201Z,84.39
2023-05-04T00:29:14.235Z,80.21
2023-05-04T00:30:14.280Z,81.60
2023-05-04T00:31:14.392Z,84.94
2023-05-04T00:32:14.333Z,85.24
2023-05-04T00:33:14.339Z,78.21
2023-05-04T00:34:14.377Z,86.28
2023-05-04T00:35:14.458Z,81.39
2023-05-04T00:36:14.452Z,83.99
2023-05-04T00:37:14.472Z,78.32
2023-05-04T00:38:14.504Z,81.15
2023-05-04T00:39:14.622Z,83.81
2023-05-04T00:40:14.550Z,79.74
2023-05-04T00:41:14.624Z,78.98
2023-05-04T00:42:14.662Z,80.07
2023-05-04T00:43:14.662Z,81.40
2023-05-04T00:44:14.688Z,86.16
2023-05-04T00:45:14.740Z,84.29
2023-05-04T00:46:14.785Z,83.85
2023-05-04T00:47:14.828Z,86.56
2023-05-04T00:48:15.016Z,90.12
2023-05-04T00:49:14.827Z,86.03
2023-05-04T00:50:14.907Z,92.39
2023-05-04T00:51:14.938Z,87.60
2023-05-04T00:52:14.975Z,89.91
2023-05-04T00:53:15.012Z,90.59
2023-05-04T00:54:15.021Z,92.37
2023-05-04T00:55:15.051Z,88.81
2023-05-04T00:56:15.088Z,87.68
2023-05-04T00:57:15.115Z,88.58
2023-05-04T00:58:15.161Z,94.45
2023-05-04T00:59:15.192Z,95.43
2023-05-04T01:00:15.184Z,88.89
2023-05-04T01:01:15.308Z,89.24
2023-05-04T01:02:15.294Z,89.77
2023-05-04T01:03:15.384Z,89.48
2023-05-04T01:04:15.398Z,91.29
2023-05-04T01:05:15.385Z,88.01
2023-05-04T01:06:15.425Z,91.20
2023-05-04T01:07:15.510Z,91.70
2023-05-04T01:08:15.492Z,92.22
2023-05-04T01:09:15.551Z,92.11
2023-05-04T01:10:15.594Z,88.15
2023-05-04T01:11:15.630Z,91.50
2023-05-04T01:12:15.673Z,90.39
2023-05-04T01:13:15.846Z,93.35
2023-05-04T01:14:15.746Z,89.95
2023-05-04T01:15:15.831Z,93.46
2023-05-04T01:16:15.872Z,91.39
2023-05-04T01:17:15.932Z,97.02
2023-05-04T01:18:15.928Z,92.74
2023-05-04T01:19:15.993Z,94.05
2023-05-04T01:20:16.008Z,96.50
2023-05-04T01:21:16.025Z,94.63
2023-05-04T01:22:16.085Z,95.38
2023-05-04T01:23:16.121Z,93.42
2023-05-04T01:24:16.166Z,94.75
2023-05-04T01:25:16.226Z,94.63
2023-05-04T01:26:16.272Z,92.35
2023-05-04T01:27:16.278Z,96.43
2023-05-04T01:28:16.350Z,94.25
2023-05-04T01:29:16.395Z,92.70
2023-05-04T01:30:16.441Z,94.61
2023-05-04T01:31:16.518Z,90.56
2023-05-04T01:32:16.533Z,94.74
2023-05-04T01:33:16.547Z,92.36
2023-05-04T01:34:16.601Z,95.81
2023-05-04T01:35:16.632Z,91.84
2023-05-04T01:36:16.689Z,91.13
2023-05-04T01:37:16.725Z,90.93
2023-05-04T01:38:16.786Z,96.73
2023-05-04T01:39:16.839Z,91.33
2023-05-04T01:40:16.873Z,94.22
2023-05-04T01:41:16.929Z,89.92
2023-05-04T01:42:16.989Z,95.10
2023-05-04T01:43:17.013Z,92.35
2023-05-04T01:44:17.044Z,94.71
2023-05-04T01:45:17.186Z,95.73
2023-05-04T01:46:17.182Z,91.81
2023-05-04T01:47:17.208Z,96.70
2023-05-04T01:48:17.238Z,90.70
2023-05-04T01:49:17.295Z,92.83
2023-05-04T01:50:17.347Z,92.83
2023-05-04T01:51:17.390Z,94.45
2023-05-04T01:52:17.449Z,90.71
2023-05-04T01:53:17.514Z,90.33
2023-05-04T01:54:17.556Z,91.89
2023-05-04T01:55:17.605Z,92.82
2023-05-04T01:56:17.682Z,94.04
2023-05-04T01:57:17.706Z,92.47
2023-05-04T01:58:17.791Z,93.40
2023-05-04T01:59:17.786Z,92.86
2023-05-04T02:00:17.879Z,94.33
2023-05-04T02:01:17.971Z,92.20
2023-05-04T02:02:17.992Z,93.45
2023-05-04T02:03:18.118Z,94.47
2023-05-04T02:04:18.100Z,95.58
2023-05-04T02:05:18.136Z,94.13
2023-05-04T02:06:18.258Z,92.61
2023-05-04T02:07:18.272Z,95.02
2023-05-04T02:08:18.377Z,90.31
2023-05-04T02:09:18.371Z,92.00
2023-05-04T02:10:18.483Z,94.44
2023-05-04T02:11:18.528Z,93.45
2023-05-04T02:12:18.545Z,92.63
2023-05-04T02:13:18.632Z,93.41
2023-05-04T02:14:18.751Z,93.76
2023-05-04T02:15:18.715Z,94.27
2023-05-04T02:16:18.881Z,96.36
2023-05-04T02:17:18.830Z,93.30
2023-05-04T02:18:18.882Z,96.27
2023-05-04T02:19:18.940Z,93.88
2023-05-04T02:20:19.024Z,96.20
2023-05-04T02:21:19.073Z,96.70
2023-05-04T02:22:19.098Z,93.46
2023-05-04T02:23:19.187Z,97.89
2023-05-04T02:24:19.313Z,97.23
2023-05-04T02:25:19.266Z,90.09
2023-05-04T02:26:19.375Z,91.78
2023-05-04T02:27:19.425Z,94.91
2023-05-04T02:28:19.456Z,89.58
2023-05-04T02:29:19.525Z,90.97
2023-05-04T02:30:19.602Z,92.22
2023-05-04T02:31:19.746Z,92.82
2023-05-04T02:32:19.856Z,86.83
2023-05-04T02:33:19.768Z,84.35
2023-05-04T02:34:19.837Z,89.06
2023-05-04T02:35:19.917Z,89.48
2023-05-04T02:36:19.983Z,87.05
2023-05-04T02:37:20.041Z,89.15
2023-05-04T02:38:20.138Z,89.14
2023-05-04T02:39:20.168Z,86.67
2023-05-04T02:40:20.246Z,88.81
2023-05-04T02:41:20.262Z,83.25
2023-05-04T02:42:20.324Z,89.13
2023-05-04T02:43:20.370Z,86.50
2023-05-04T02:44:20.452Z,88.81
2023-05-04T02:45:20.569Z,86.12
2023-05-04T02:46:20.606Z,86.47
2023-05-04T02:47:20.702Z,83.84
2023-05-04T02:48:20.688Z,81.09
2023-05-04T02:49:20.692Z,81.74
2023-05-04T02:50:20.759Z,82.84
2023-05-04T02:51:20.859Z,82.60
2023-05-04T02:52:20.928Z,82.09
2023-05-04T02:53:20.935Z,80.99
2023-05-04T02:54:21.051Z,80.79
2023-05-04T02:55:21.052Z,79.50
2023-05-04T02:56:21.111Z,81.85
2023-05-04T02:57:21.164Z,79.18
2023-05-04T02:58:21.203Z,79.39
2023-05-04T02:59:21.206Z,81.78
2023-05-04T03:00:21.287Z,79.95
2023-05-04T03:01:21.315Z,80.90
2023-05-04T03:02:21.355Z,77.94
2023-05-04T03:03:21.334Z,79.32
2023-05-04T03:04:21.522Z,81.07
2023-05-04T03:05:21.415Z,75.61
2023-05-04T03:06:21.445Z,74.84
2023-05-04T03:07:21.460Z,75.97
2023-05-04T03:08:21.475Z,73.93
2023-05-04T03:09:21.488Z,74.32
2023-05-04T03:10:21.518Z,72.56
2023-05-04T03:11:21.503Z,71.21
2023-05-04T03:12:21.530Z,71.57
2023-05-04T03:13:21.600Z,70.08
2023-05-04T03:14:21.638Z,71.74
2023-05-04T03:15:21.630Z,73.24
2023-05-04T03:16:21.664Z,70.99
2023-05-04T03:17:21.691Z,72.23
2023-05-04T03:18:21.730Z,71.92
2023-05-04T03:19:21.784Z,73.04
2023-05-04T03:20:21.789Z,75.64
2023-05-04T03:21:21.798Z,73.88
2023-05-04T03:22:21.852Z,72.65
2023-05-04T03:23:21.897Z,72.49
2023-05-04T03:24:21.912Z,74.36
2023-05-04T03:25:21.939Z,73.44
2023-05-04T03:26:21.899Z,74.13
2023-05-04T03:27:21.948Z,74.94
2023-05-04T03:28:21.948Z,74.16
2023-05-04T03:29:22.043Z,75.20
2023-05-04T03:30:22.057Z,74.65
2023-05-04T03:31:22.116Z,75.77
2023-05-04T03:32:22.121Z,77.21
2023-05-04T03:33:22.090Z,73.50
2023-05-04T03:34:22.066Z,74.57
2023-05-04T03:35:24.868Z,79.24
2023-05-04T03:36:22.148Z,80.77
2023-05-04T03:37:22.061Z,82.35
2023-05-04T03:38:22.167Z,81.34
2023-05-04T03:39:22.026Z,80.55
2023-05-04T03:40:22.021Z,79.85
2023-05-04T03:41:22.043Z,78.11
2023-05-04T03:42:22.017Z,79.46
2023-05-04T03:43:22.006Z,78.97
2023-05-04T03:44:22.049Z,81.99
2023-05-04T03:45:22.011Z,80.29
2023-05-04T03:46:22.058Z,84.17
2023-05-04T03:47:22.003Z,82.98
2023-05-04T03:48:21.970Z,86.00
2023-05-04T03:49:21.951Z,85.18
2023-05-04T03:50:21.970Z,84.50
2023-05-04T03:51:21.963Z,84.73
2023-05-04T03:52:21.960Z,85.24
2023-05-04T03:53:21.951Z,90.09
2023-05-04T03:54:21.921Z,86.28
2023-05-04T03:55:21.974Z,85.25
2023-05-04T03:56:21.934Z,89.24
2023-05-04T03:57:21.933Z,91.02
2023-05-04T03:58:21.924Z,90.18
2023-05-04T03:59:21.903Z,89.49
2023-05-04T04:00:21.909Z,94.93
2023-05-04T04:01:21.860Z,93.09
2023-05-04T04:02:21.976Z,95.80
2023-05-04T04:03:22.242Z,99.07
2023-05-04T04:04:21.904Z,103.15
2023-05-04T04:05:21.885Z,103.87
2023-05-04T04:06:21.868Z,105.21
2023-05-04T04:07:21.853Z,100.48
2023-05-04T04:08:21.866Z,100.32
2023-05-04T04:09:21.852Z,99.95
2023-05-04T04:10:21.838Z,97.52
2023-05-04T04:11:21.834Z,99.85
2023-05-04T04:12:21.843Z,98.17
2023-05-04T04:13:21.860Z,99.82
2023-05-04T04:14:21.797Z,98.61
2023-05-04T04:15:21.810Z,97.12
2023-05-04T04:16:21.820Z,98.75
2023-05-04T04:17:21.802Z,99.01
2023-05-04T04:18:21.769Z,96.84
2023-05-04T04:19:21.777Z,96.89
2023-05-04T04:20:21.768Z,95.77
2023-05-04T04:21:21.780Z,96.21
2023-05-04T04:22:21.742Z,97.69
2023-05-04T04:23:21.842Z,95.95
2023-05-04T04:24:21.741Z,96.57
2023-05-04T04:25:21.754Z,95.40
2023-05-04T04:26:21.708Z,93.95
2023-05-04T04:27:21.713Z,94.97
2023-05-04T04:28:21.720Z,94.59
2023-05-04T04:29:21.702Z,92.16
2023-05-04T04:30:21.763Z,95.48
2023-05-04T04:31:21.776Z,96.79
2023-05-04T04:32:21.735Z,97.73
2023-05-04T04:33:21.700Z,97.70
2023-05-04T04:34:21.697Z,100.37
2023-05-04T04:35:21.728Z,103.62
2023-05-04T04:36:21.815Z,105.45
2023-05-04T04:37:21.708Z,108.65
2023-05-04T04:38:21.726Z,109.65
2023-05-04T04:39:21.728Z,111.20
2023-05-04T04:40:21.706Z,113.36
2023-05-04T04:41:21.644Z,117.13
2023-05-04T04:42:21.715Z,119.34
2023-05-04T04:43:21.628Z,120.29
2023-05-04T04:44:21.628Z,122.07
2023-05-04T04:45:21.589Z,125.28
2023-05-04T04:46:21.642Z,124.34
2023-05-04T04:47:21.614Z,125.80
2023-05-04T04:48:21.616Z,125.35
2023-05-04T04:49:21.563Z,128.16
2023-05-04T04:50:21.574Z,130.84
2023-05-04T04:51:21.616Z,127.32
2023-05-04T04:52:21.559Z,129.17
2023-05-04T04:53:21.560Z,132.54
2023-05-04T04:54:21.534Z,130.44
2023-05-04T04:55:21.548Z,134.21
2023-05-04T04:56:21.597Z,138.57
2023-05-04T04:57:21.505Z,137.22
2023-05-04T04:58:21.514Z,136.40
2023-05-04T04:59:21.529Z,135.24
2023-05-04T05:00:21.503Z,134.92
2023-05-04T05:01:21.572Z,135.12
2023-05-04T05:02:21.502Z,133.79
2023-05-04T05:03:21.450Z,136.53
2023-05-04T05:04:21.486Z,138.84
2023-05-04T05:05:21.463Z,136.49
2023-05-04T05:06:21.445Z,137.04
2023-05-04T05:07:21.465Z,132.88
2023-05-04T05:08:21.432Z,137.45
2023-05-04T05:09:21.450Z,134.17
2023-05-04T05:10:21.451Z,139.41
2023-05-04T05:11:21.427Z,136.44
2023-05-04T05:12:21.457Z,135.38
2023-05-04T05:13:21.518Z,136.58
2023-05-04T05:14:21.436Z,138.44
2023-05-04T05:15:21.396Z,134.88
2023-05-04T05:16:21.487Z,133.53
2023-05-04T05:17:21.408Z,133.68
2023-05-04T05:18:21.408Z,135.94
2023-05-04T05:19:21.356Z,134.43
2023-05-04T05:20:21.412Z,138.90
2023-05-04T05:21:21.383Z,137.34
2023-05-04T05:22:21.361Z,139.15
2023-05-04T05:23:21.374Z,139.52
2023-05-04T05:24:21.341Z,140.28
2023-05-04T05:25:21.355Z,139.01
2023-05-04T05:26:21.323Z,144.64
2023-05-04T05:27:21.323Z,142.16
2023-05-04T05:28:21.312Z,139.05
2023-05-04T05:29:21.320Z,142.32
2023-05-04T05:30:21.317Z,142.42
2023-05-04T05:31:21.327Z,139.98
2023-05-04T05:32:21.277Z,140.54
2023-05-04T05:33:21.305Z,144.00
2023-05-04T05:34:21.265Z,142.50
2023-05-04T05:35:21.273Z,138.33
2023-05-04T05:36:21.250Z,140.83
2023-05-04T05:37:21.283Z,139.85
2023-05-04T05:38:21.273Z,136.73
2023-05-04T05:39:21.290Z,134.76
2023-05-04T05:40:21.299Z,137.14
2023-05-04T05:41:21.352Z,140.19
2023-05-04T05:42:21.436Z,146.97
2023-05-04T05:43:21.371Z,143.37
2023-05-04T05:44:21.485Z,141.76
2023-05-04T05:45:21.560Z,140.43
2023-05-04T05:46:21.530Z,148.30
2023-05-04T05:47:21.547Z,151.24
2023-05-04T05:48:22.027Z,160.47
2023-05-04T05:49:21.620Z,165.83
2023-05-04T05:50:21.628Z,167.68
2023-05-04T05:51:21.655Z,170.55
2023-05-04T05:52:21.740Z,182.74
2023-05-04T05:53:21.746Z,201.19
2023-05-04T05:54:21.748Z,212.45
2023-05-04T05:55:21.713Z,228.36
2023-05-04T05:56:21.776Z,240.73
2023-05-04T05:57:21.797Z,246.71
2023-05-04T05:58:21.816Z,248.17
2023-05-04T05:59:21.806Z,250.00
2023-05-04T06:00:21.802Z,248.16
2023-05-04T06:01:21.810Z,247.68
2023-05-04T06:02:21.930Z,250.00
2023-05-04T06:03:21.993Z,250.00
2023-05-04T06:04:22.027Z,250.00
2023-05-04T06:05:22.012Z,250.94
2023-05-04T06:06:22.089Z,246.63
2023-05-04T06:07:22.151Z,244.72
2023-05-04T06:08:22.207Z,257.25
2023-05-04T06:09:22.284Z,252.89
2023-05-04T06:10:22.273Z,260.60
2023-05-04T06:11:22.538Z,248.11
2023-05-04T06:12:22.344Z,239.34
2023-05-04T06:13:22.539Z,239.18
2023-05-04T06:14:22.479Z,240.04
2023-05-04T06:15:22.578Z,234.63
2023-05-04T06:16:22.585Z,234.55
2023-05-04T06:17:22.703Z,234.28
2023-05-04T06:18:22.672Z,234.02
2023-05-04T06:19:22.652Z,232.22
2023-05-04T06:20:22.685Z,231.76
2023-05-04T06:21:22.775Z,232.94
2023-05-04T06:22:22.806Z,235.16
2023-05-04T06:23:22.836Z,233.85
2023-05-04T06:24:23.112Z,233.05
2023-05-04T06:25:22.899Z,231.47
2023-05-04T06:26:22.925Z,233.11
2023-05-04T06:27:24.250Z,231.43
2023-05-04T06:28:23.043Z,232.88
2023-05-04T06:29:23.016Z,234.68
2023-05-04T06:30:23.049Z,231.53
2023-05-04T06:31:23.082Z,232.30
2023-05-04T06:32:23.103Z,231.07
2023-05-04T06:33:23.152Z,229.12
2023-05-04T06:34:23.136Z,227.33
2023-05-04T06:35:23.166Z,224.50
2023-05-04T06:36:23.156Z,223.35
2023-05-04T06:37:23.178Z,222.84
2023-05-04T06:38:23.209Z,221.38
2023-05-04T06:39:23.224Z,218.66
2023-05-04T06:40:23.337Z,217.15
2023-05-04T06:41:23.284Z,213.27
2023-05-04T06:42:23.289Z,201.83
2023-05-04T06:43:23.332Z,196.42
2023-05-04T06:44:23.589Z,200.31
2023-05-04T06:45:23.447Z,200.11
2023-05-04T06:46:23.589Z,201.40
2023-05-04T06:47:23.547Z,200.54
2023-05-04T06:48:23.545Z,198.05
2023-05-04T06:49:23.535Z,199.31
2023-05-04T06:50:23.611Z,200.90
2023-05-04T06:51:23.647Z,198.85
2023-05-04T06:52:24.044Z,198.24
2023-05-04T06:53:24.092Z,199.93
2023-05-04T06:54:23.707Z,198.53
2023-05-04T06:55:23.707Z,199.98
2023-05-04T06:56:23.714Z,198.32
2023-05-04T06:57:23.727Z,199.20
2023-05-04T06:58:23.730Z,201.68
2023-05-04T06:59:23.778Z,203.75
2023-05-04T07:00:24.073Z,204.58
2023-05-04T07:01:23.836Z,200.90
2023-05-04T07:02:23.834Z,200.66
2023-05-04T07:03:23.810Z,196.70
2023-05-04T07:04:23.788Z,197.42
2023-05-04T07:05:24.096Z,191.35
2023-05-04T07:06:23.780Z,189.69
2023-05-04T07:07:23.817Z,188.59
2023-05-04T07:08:23.803Z,184.14
2023-05-04T07:09:23.788Z,185.04
2023-05-04T07:10:23.803Z,182.99
2023-05-04T07:11:23.812Z,181.47
2023-05-04T07:12:23.772Z,181.78
2023-05-04T07:13:23.755Z,181.13
2023-05-04T07:14:23.792Z,181.11
2023-05-04T07:15:23.823Z,182.11
2023-05-04T07:16:23.802Z,178.04
2023-05-04T07:17:23.870Z,179.85
2023-05-04T07:18:23.770Z,170.25
2023-05-04T07:19:23.775Z,171.87
2023-05-04T07:20:26.032Z,169.34
2023-05-04T07:21:28.277Z,169.85
2023-05-04T07:22:24.980Z,170.03
2023-05-04T07:23:23.987Z,169.72
2023-05-04T07:24:23.949Z,164.94
2023-05-04T07:25:24.107Z,158.10
2023-05-04T07:26:23.964Z,151.97
2023-05-04T07:27:23.964Z,150.11
2023-05-04T07:28:23.933Z,147.47
2023-05-04T07:29:23.916Z,150.49
2023-05-04T07:30:24.051Z,146.87
2023-05-04T07:31:23.931Z,144.58
2023-05-04T07:32:23.968Z,139.72
2023-05-04T07:33:23.984Z,134.03
2023-05-04T07:34:34.004Z,119.01
2023-05-04T07:35:25.160Z,111.08
2023-05-04T07:36:23.933Z,107.63
2023-05-04T07:37:23.954Z,94.41
2023-05-04T07:38:23.919Z,92.51
2023-05-04T07:39:23.886Z,88.80
2023-05-04T07:40:23.890Z,84.55
2023-05-04T07:41:24.080Z,85.97
2023-05-04T07:42:23.899Z,88.15
2023-05-04T07:43:23.851Z,89.48
2023-05-04T07:44:23.916Z,87.89
2023-05-04T07:45:23.875Z,86.69
2023-05-04T07:46:23.957Z,83.81
2023-05-04T07:47:24.699Z,78.34
2023-05-04T07:48:26.196Z,75.44
2023-05-04T07:49:23.843Z,76.64
2023-05-04T07:50:24.124Z,78.51
2023-05-04T07:51:24.086Z,78.77
2023-05-04T07:52:23.827Z,71.86
2023-05-04T07:53:23.791Z,72.05
2023-05-04T07:54:23.829Z,73.42
2023-05-04T07:55:23.849Z,72.16
2023-05-04T07:56:23.792Z,73.53
2023-05-04T07:57:23.818Z,69.57
2023-05-04T07:58:23.810Z,72.88
2023-05-04T07:59:23.794Z,68.91
2023-05-04T08:00:23.795Z,65.77
2023-05-04T08:01:23.807Z,65.92
2023-05-04T08:02:23.816Z,66.86
2023-05-04T08:03:23.875Z,68.79
2023-05-04T08:04:23.746Z,75.33
2023-05-04T08:05:24.060Z,85.59
2023-05-04T08:06:24.074Z,95.06
2023-05-04T08:07:23.747Z,94.34
2023-05-04T08:08:23.745Z,94.43
2023-05-04T08:09:23.717Z,88.34
2023-05-04T08:10:23.722Z,89.78
2023-05-04T08:11:23.679Z,92.84
2023-05-04T08:12:23.699Z,94.76
2023-05-04T08:13:23.662Z,100.15
2023-05-04T08:14:23.744Z,106.82
2023-05-04T08:15:23.658Z,109.08
2023-05-04T08:16:23.863Z,111.48
2023-05-04T08:17:23.674Z,118.50
2023-05-04T08:18:23.632Z,121.27
2023-05-04T08:19:23.792Z,126.97
2023-05-04T08:20:23.916Z,128.53
2023-05-04T08:21:23.609Z,133.50
2023-05-04T08:22:23.634Z,133.94
2023-05-04T08:23:23.610Z,125.82
2023-05-04T08:24:23.603Z,121.07
2023-05-04T08:25:23.591Z,122.53
2023-05-04T08:26:23.654Z,123.61
2023-05-04T08:27:23.641Z,116.47
2023-05-04T08:28:23.633Z,98.61
2023-05-04T08:29:23.616Z,95.83
2023-05-04T08:30:23.738Z,97.85
2023-05-04T08:31:23.703Z,92.64
2023-05-04T08:32:23.613Z,86.48
2023-05-04T08:33:23.581Z,67.63
2023-05-04T08:34:23.674Z,59.12
2023-05-04T08:35:23.514Z,49.26
2023-05-04T08:36:23.632Z,40.48
2023-05-04T08:37:23.499Z,30.75
2023-05-04T08:38:23.563Z,25.34
2023-05-04T08:39:23.500Z,25.39
2023-05-04T08:40:23.544Z,25.00
2023-05-04T08:41:23.518Z,25.00
2023-05-04T08:42:23.534Z,25.36
2023-05-04T08:43:23.657Z,24.90
2023-05-04T08:44:24.075Z,29.20
2023-05-04T08:45:23.672Z,18.80
2023-05-04T08:46:23.742Z,38.54
2023-05-04T08:47:23.811Z,47.19
2023-05-04T08:48:23.823Z,51.91
2023-05-04T08:49:23.869Z,56.02
2023-05-04T08:50:23.857Z,52.80
2023-05-04T08:51:23.937Z,51.07
2023-05-04T08:52:23.973Z,55.53
2023-05-04T08:53:24.161Z,57.10
2023-05-04T08:54:24.013Z,60.09
2023-05-04T08:55:24.030Z,63.50
2023-05-04T08:56:24.043Z,54.97
2023-05-04T08:57:24.109Z,52.26
2023-05-04T08:58:24.056Z,52.71
2023-05-04T08:59:24.099Z,54.55
2023-05-04T09:00:24.231Z,50.50
2023-05-04T09:01:24.170Z,47.55
2023-05-04T09:02:24.207Z,48.38
2023-05-04T09:03:24.222Z,52.97
2023-05-04T09:04:24.121Z,58.15
2023-05-04T09:05:24.106Z,65.43
2023-05-04T09:06:24.093Z,66.08
2023-05-04T09:07:24.073Z,72.72
2023-05-04T09:08:24.115Z,72.41
2023-05-04T09:09:24.090Z,71.98
2023-05-04T09:10:24.110Z,77.86
2023-05-04T09:11:24.086Z,78.74
2023-05-04T09:12:24.622Z,83.62
2023-05-04T09:13:24.127Z,82.33
2023-05-04T09:14:24.637Z,82.01
2023-05-04T09:15:24.152Z,79.95
2023-05-04T09:16:24.232Z,79.08
2023-05-04T09:17:24.214Z,86.01
2023-05-04T09:18:24.287Z,85.20
2023-05-04T09:19:24.339Z,87.13
2023-05-04T09:20:24.382Z,84.49
2023-05-04T09:21:24.431Z,71.58
2023-05-04T09:22:24.569Z,69.60
2023-05-04T09:23:24.573Z,65.10
2023-05-04T09:24:24.599Z,66.46
2023-05-04T09:25:24.686Z,66.39
2023-05-04T09:26:24.717Z,65.53
2023-05-04T09:27:24.788Z,63.00
2023-05-04T09:28:25.768Z,63.36
2023-05-04T09:29:24.916Z,64.10
2023-05-04T09:30:25.002Z,64.20
2023-05-04T09:31:25.153Z,71.11
2023-05-04T09:32:25.137Z,70.23
2023-05-04T09:33:25.111Z,80.34
2023-05-04T09:34:25.194Z,89.72
2023-05-04T09:35:32.388Z,88.64
2023-05-04T09:36:26.265Z,88.70
2023-05-04T09:37:25.259Z,80.15
2023-05-04T09:38:25.248Z,76.57
2023-05-04T09:39:25.264Z,73.38
2023-05-04T09:40:25.222Z,63.81
2023-05-04T09:41:25.637Z,51.02
2023-05-04T09:42:25.206Z,40.12
2023-05-04T09:43:25.249Z,28.81
2023-05-04T09:44:26.882Z,26.14
2023-05-04T09:45:25.221Z,25.00
2023-05-04T09:46:25.661Z,25.14
2023-05-04T09:47:25.216Z,25.00
2023-05-04T09:48:25.173Z,24.12
2023-05-04T09:49:25.299Z,25.66
2023-05-04T09:50:25.188Z,25.33
2023-05-04T09:51:25.137Z,25.00
2023-05-04T09:52:25.639Z,25.21
2023-05-04T09:53:25.225Z,25.00
2023-05-04T09:54:25.148Z,24.85
2023-05-04T09:55:25.117Z,25.00
2023-05-04T09:56:25.131Z,25.12
2023-05-04T09:57:25.092Z,25.09
2023-05-04T09:58:25.097Z,25.33
2023-05-04T09:59:25.072Z,25.81
2023-05-04T10:00:25.101Z,24.97
2023-05-04T10:01:25.107Z,26.26
2023-05-04T10:02:25.100Z,25.00
2023-05-04T10:03:25.125Z,26.90
2023-05-04T10:04:25.052Z,25.00
2023-05-04T10:05:25.079Z,25.00
2023-05-04T10:06:25.022Z,25.00
2023-05-04T10:07:25.041Z,25.16
2023-05-04T10:08:25.007Z,26.04
2023-05-04T10:09:25.019Z,27.23
2023-05-04T10:10:25.015Z,25.54
2023-05-04T10:11:24.993Z,26.29
2023-05-04T10:12:24.979Z,32.20
2023-05-04T10:13:24.998Z,36.11
2023-05-04T10:14:24.986Z,40.28
2023-05-04T10:15:24.972Z,45.97
2023-05-04T10:16:25.025Z,48.93
2023-05-04T10:17:24.975Z,58.34
2023-05-04T10:18:24.963Z,61.98
2023-05-04T10:19:24.950Z,63.24
2023-05-04T10:20:24.930Z,60.25
2023-05-04T10:21:24.913Z,59.91
2023-05-04T10:22:24.923Z,70.73
2023-05-04T10:23:24.896Z,72.05
2023-05-04T10:24:24.926Z,80.11
2023-05-04T10:25:24.955Z,85.49
2023-05-04T10:26:24.899Z,89.54
2023-05-04T10:27:24.898Z,95.95
2023-05-04T10:28:24.889Z,95.53
2023-05-04T10:29:24.902Z,98.58
2023-05-04T10:30:24.890Z,101.19
2023-05-04T10:31:24.901Z,98.55
2023-05-04T10:32:24.873Z,100.67
2023-05-04T10:33:24.871Z,106.23
2023-05-04T10:34:24.848Z,111.06
2023-05-04T10:35:24.846Z,110.67
2023-05-04T10:36:24.836Z,119.27
2023-05-04T10:37:24.820Z,118.80
2023-05-04T10:38:25.166Z,120.80
2023-05-04T10:39:24.851Z,123.02
2023-05-04T10:40:24.844Z,128.33
2023-05-04T10:41:24.787Z,127.56
2023-05-04T10:42:24.796Z,126.78
2023-05-04T10:43:24.802Z,129.70
2023-05-04T10:44:24.776Z,135.59
2023-05-04T10:45:24.816Z,138.55
2023-05-04T10:46:24.743Z,135.88
2023-05-04T10:47:24.857Z,132.16
2023-05-04T10:48:24.765Z,140.12
2023-05-04T10:49:24.724Z,138.15
2023-05-04T10:50:24.709Z,145.44
2023-05-04T10:51:30.380Z,144.65
2023-05-04T10:52:25.709Z,144.79
2023-05-04T10:53:24.701Z,144.88
2023-05-04T10:54:24.728Z,144.66
2023-05-04T10:55:24.748Z,145.40
2023-05-04T10:56:24.683Z,151.08
2023-05-04T10:57:24.729Z,148.44
2023-05-04T10:58:24.656Z,149.85
2023-05-04T10:59:24.681Z,147.25
2023-05-04T11:00:24.675Z,151.83
2023-05-04T11:01:24.688Z,157.42
2023-05-04T11:02:24.689Z,157.24
2023-05-04T11:03:24.753Z,156.60
2023-05-04T11:04:24.637Z,153.63
2023-05-04T11:05:24.619Z,152.89
2023-05-04T11:06:24.741Z,159.30
2023-05-04T11:07:24.630Z,159.12
2023-05-04T11:08:24.611Z,161.72
2023-05-04T11:09:24.636Z,159.91
2023-05-04T11:10:24.603Z,162.31
2023-05-04T11:11:24.583Z,162.23
2023-05-04T11:12:24.604Z,165.46
2023-05-04T11:13:24.676Z,165.95
2023-05-04T11:14:24.675Z,167.55
2023-05-04T11:15:24.638Z,167.74
2023-05-04T11:16:24.580Z,166.79
2023-05-04T11:17:28.465Z,167.70
2023-05-04T11:18:24.669Z,167.81
2023-05-04T11:19:24.669Z,168.14
2023-05-04T11:20:24.691Z,168.72
2023-05-04T11:21:24.521Z,169.20
2023-05-04T11:22:24.523Z,171.74
2023-05-04T11:23:24.702Z,173.72
2023-05-04T11:24:24.666Z,172.47
2023-05-04T11:25:24.495Z,171.58
2023-05-04T11:26:24.514Z,174.16
2023-05-04T11:27:24.525Z,175.11
2023-05-04T11:28:24.454Z,175.09
2023-05-04T11:29:24.460Z,173.73
2023-05-04T11:30:24.474Z,167.62
2023-05-04T11:31:24.481Z,170.99
2023-05-04T11:32:24.501Z,168.74
2023-05-04T11:33:24.429Z,166.20
2023-05-04T11:34:24.445Z,164.14
2023-05-04T11:35:24.446Z,170.05
2023-05-04T11:36:24.415Z,168.14
2023-05-04T11:37:24.411Z,170.73
2023-05-04T11:38:24.427Z,169.34
2023-05-04T11:39:24.388Z,171.82
2023-05-04T11:40:24.407Z,171.68
2023-05-04T11:41:24.405Z,170.13
2023-05-04T11:42:24.402Z,170.77
2023-05-04T11:43:24.402Z,171.86
2023-05-04T11:44:24.380Z,168.57
2023-05-04T11:45:24.383Z,165.92
2023-05-04T11:46:24.494Z,166.52
2023-05-04T11:47:24.364Z,165.35
2023-05-04T11:48:24.351Z,164.21
2023-05-04T11:49:24.338Z,166.72
2023-05-04T11:50:24.369Z,164.46
2023-05-04T11:51:24.379Z,170.60
2023-05-04T11:52:24.379Z,168.23
2023-05-04T11:53:24.368Z,165.93
2023-05-04T11:54:24.362Z,166.06
2023-05-04T11:55:24.280Z,171.53
2023-05-04T11:56:24.380Z,172.44
2023-05-04T11:57:24.310Z,168.24
2023-05-04T11:58:24.287Z,164.06
2023-05-04T11:59:24.293Z,170.06
2023-05-04T12:00:24.454Z,168.77
2023-05-04T12:01:24.268Z,164.41
2023-05-04T12:02:24.312Z,165.39
2023-05-04T12:03:25.935Z,164.54
2023-05-04T12:04:24.345Z,164.59
2023-05-04T12:05:24.307Z,161.25
2023-05-04T12:06:24.247Z,158.51
2023-05-04T12:07:24.230Z,156.67
2023-05-04T12:08:24.255Z,154.43
2023-05-04T12:09:24.242Z,156.32
2023-05-04T12:10:24.189Z,154.19
2023-05-04T12:11:24.203Z,154.92
2023-05-04T12:12:24.211Z,153.51
2023-05-04T12:13:24.190Z,152.69
2023-05-04T12:14:24.259Z,152.65
2023-05-04T12:15:24.330Z,151.93
2023-05-04T12:16:24.203Z,151.59
2023-05-04T12:17:24.282Z,151.64
2023-05-04T12:18:24.143Z,151.88
2023-05-04T12:19:24.154Z,151.16
2023-05-04T12:20:24.138Z,150.04
2023-05-04T12:21:24.136Z,150.88
2023-05-04T12:22:24.147Z,150.25
2023-05-04T12:23:24.125Z,150.79
2023-05-04T12:24:24.155Z,153.00
2023-05-04T12:25:24.114Z,152.12
2023-05-04T12:26:24.127Z,151.47
2023-05-04T12:27:24.106Z,153.29
2023-05-04T12:28:24.093Z,151.67
2023-05-04T12:29:24.096Z,151.42
2023-05-04T12:30:24.079Z,151.41
2023-05-04T12:31:25.366Z,153.31
2023-05-04T12:32:24.082Z,151.86
2023-05-04T12:33:24.077Z,152.21
2023-05-04T12:34:24.054Z,153.49
2023-05-04T12:35:24.034Z,152.51
2023-05-04T12:36:24.065Z,151.95
2023-05-04T12:37:25.099Z,152.19
2023-05-04T12:38:24.030Z,153.81
2023-05-04T12:39:24.039Z,151.54
2023-05-04T12:40:28.650Z,151.35
2023-05-04T12:41:25.016Z,151.41